»·PEaware :: AAL547 KPHX-KSLC

AAL547 :: KPHX-KSLC

FLIGHT INFORMATION

Flight Status: Arrived
Operator:
American Airlines
More flights by this operator :: More flights under this callsign
Pilot: Ben L. (6391)
Aircraft: AIRBUS A320
(A320)
More flights by this aircraft type
Origin: KPHX Phoenix Sky Harbor Intl
United States
Destination: KSLC Salt Lake City Intl
United States
More flights between these airports :: More routes between these airports
Route: +SNOBL5 GCN BCE QWENN5
File this flight plan on PilotEdge
Remarks:
Altitude:
(Current/Filed)
36,000ft
Speed:
(Current/Filed)
470kts
Departed: 04-Jan-18 07:35 PM
Arrived: 04-Jan-18 08:52 PM
Distance/Time
Traveled:
441nm/1:17
Distance/Time
To Go:
Arrived

Flight Plot

Page will automatically refresh every two minutes.

Flight plan parsing failed; only flown route is shown


Map Options




Map Legend


Flown Route
Filed Route
Departure Airport
Arrival Airport
Navaid (VOR, NDB)
Fix

Horizontal Profiles

Position Reports

Time Latitude Longitude Heading Altitude Ground
Speed
04-Jan-18 18:20 33.437176 -111.999799 90 1143ft 0kts
04-Jan-18 18:21 33.437176 -111.999799 90 1143ft 0kts
04-Jan-18 18:22 33.437176 -111.999799 90 1143ft 0kts
04-Jan-18 18:23 33.437176 -111.999799 90 1143ft 0kts
04-Jan-18 18:24 33.437176 -111.999799 90 1143ft 0kts
04-Jan-18 18:25 33.437176 -111.999799 90 1143ft 0kts
04-Jan-18 18:26 33.437176 -111.999799 90 1143ft 0kts
04-Jan-18 18:27 33.437176 -111.999799 90 1143ft 0kts
04-Jan-18 18:28 33.437176 -111.999799 90 1143ft 0kts
04-Jan-18 18:29 33.437176 -111.999799 90 1143ft 0kts
04-Jan-18 18:30 33.437176 -111.999799 90 1143ft 0kts
04-Jan-18 18:31 33.437176 -111.999799 90 1143ft 0kts
04-Jan-18 18:32 33.437176 -111.999799 90 1143ft 0kts
04-Jan-18 18:33 33.437176 -111.999799 90 1143ft 0kts
04-Jan-18 18:34 33.437176 -111.999799 90 1143ft 0kts
04-Jan-18 18:35 33.437176 -111.999799 90 1143ft 0kts
04-Jan-18 18:36 33.437176 -111.999799 90 1143ft 0kts
04-Jan-18 18:37 33.437176 -111.999799 90 1143ft 0kts
04-Jan-18 18:38 33.437176 -111.999799 90 1143ft 0kts
04-Jan-18 18:39 33.437176 -111.999799 90 1143ft 0kts
04-Jan-18 18:40 33.437176 -111.999799 90 1143ft 0kts
04-Jan-18 18:41 33.437176 -111.999799 90 1143ft 0kts
04-Jan-18 18:42 33.437176 -111.999799 90 1143ft 0kts
04-Jan-18 18:43 33.437176 -111.999799 90 1143ft 0kts
04-Jan-18 18:44 33.437176 -111.999799 90 1143ft 0kts
04-Jan-18 18:45 33.437176 -111.999799 90 1143ft 0kts
04-Jan-18 18:46 33.437176 -111.999799 90 1143ft 0kts
04-Jan-18 18:47 33.437176 -111.999799 90 1143ft 0kts
04-Jan-18 18:48 33.437176 -111.999799 90 1143ft 0kts
04-Jan-18 18:49 33.437176 -111.999799 90 1143ft 0kts
04-Jan-18 18:50 33.437176 -111.999799 90 1143ft 0kts
04-Jan-18 18:51 33.437176 -111.999799 90 1143ft 0kts
04-Jan-18 18:52 33.437176 -111.999799 90 1143ft 0kts
04-Jan-18 18:53 33.437176 -111.999799 90 1143ft 0kts
04-Jan-18 18:54 33.437176 -111.999799 90 1143ft 0kts
04-Jan-18 18:55 33.437176 -111.999799 90 1143ft 0kts
04-Jan-18 18:56 33.437176 -111.999799 90 1143ft 0kts
04-Jan-18 18:57 33.437176 -111.999799 90 1143ft 0kts
04-Jan-18 18:58 33.437176 -111.999799 90 1143ft 0kts
04-Jan-18 18:59 33.437176 -111.999799 90 1143ft 0kts
04-Jan-18 19:00 33.437176 -111.999799 90 1143ft 0kts
04-Jan-18 19:01 33.437176 -111.999799 90 1143ft 0kts
04-Jan-18 19:02 33.437176 -111.999799 90 1143ft 0kts
04-Jan-18 19:03 33.437176 -111.999799 90 1143ft 0kts
04-Jan-18 19:04 33.437176 -111.999799 90 1143ft 0kts
04-Jan-18 19:05 33.437176 -111.999799 90 1143ft 0kts
04-Jan-18 19:06 33.437176 -111.999799 90 1143ft 0kts
04-Jan-18 19:07 33.437176 -111.999799 90 1143ft 0kts
04-Jan-18 19:08 33.437176 -111.999799 90 1143ft 0kts
04-Jan-18 19:09 33.437176 -111.999799 90 1143ft 0kts
04-Jan-18 19:10 33.437176 -111.999799 90 1143ft 0kts
04-Jan-18 19:11 33.437176 -111.999799 90 1143ft 0kts
04-Jan-18 19:12 33.437176 -111.999799 90 1143ft 0kts
04-Jan-18 19:13 33.437176 -111.999799 90 1143ft 0kts
04-Jan-18 19:14 33.437176 -111.999799 90 1143ft 0kts
04-Jan-18 19:15 33.437176 -111.999799 90 1143ft 0kts
04-Jan-18 19:16 33.437176 -111.999799 90 1143ft 0kts
04-Jan-18 19:17 33.437176 -111.999799 90 1143ft 0kts
04-Jan-18 19:18 33.437176 -111.999799 90 1143ft 0kts
04-Jan-18 19:19 33.437176 -111.999799 90 1143ft 0kts
04-Jan-18 19:20 33.437176 -111.999799 90 1143ft 0kts
04-Jan-18 19:21 33.437176 -111.999799 90 1143ft 0kts
04-Jan-18 19:22 33.437176 -111.999799 90 1143ft 0kts
04-Jan-18 19:23 33.437176 -112.000085 90 1143ft 2kts
04-Jan-18 19:24 33.437023 -112.000320 357 1143ft 1kts
04-Jan-18 19:25 33.437000 -112.000319 359 1143ft 0kts
04-Jan-18 19:26 33.437019 -112.000319 359 1143ft 0kts
04-Jan-18 19:27 33.438386 -112.000527 358 1143ft 0kts
04-Jan-18 19:28 33.438404 -112.000528 358 1143ft 0kts
04-Jan-18 19:29 33.438404 -112.000527 358 1143ft 0kts
04-Jan-18 19:30 33.438404 -112.000527 358 1143ft 0kts
04-Jan-18 19:31 33.439074 -111.998766 89 1143ft 12kts
04-Jan-18 19:32 33.439045 -111.995516 85 1143ft 5kts
04-Jan-18 19:33 33.439048 -111.993479 91 1143ft 0kts
04-Jan-18 19:34 33.439043 -111.992717 75 1143ft 4kts
04-Jan-18 19:35 33.439182 -111.992409 38 1143ft 0kts
04-Jan-18 19:36 33.439194 -111.992399 36 1143ft 0kts
04-Jan-18 19:37 33.439233 -111.992376 22 1143ft 0kts
04-Jan-18 19:38 33.439579 -111.992289 2 1143ft 6kts
04-Jan-18 19:39 33.439785 -111.992293 356 1143ft 0kts
04-Jan-18 19:40 33.440839 -111.993089 269 1143ft 12kts
04-Jan-18 19:41 33.441448 -112.028601 274 2054ft 162kts
04-Jan-18 19:42 33.450180 -112.089327 310 4042ft 224kts
04-Jan-18 19:43 33.502826 -112.145103 318 6472ft 277kts
04-Jan-18 19:44 33.573662 -112.171891 1 9605ft 288kts
04-Jan-18 19:45 33.643789 -112.135405 43 12147ft 324kts
04-Jan-18 19:46 33.709920 -112.050790 43 13840ft 365kts
04-Jan-18 19:47 33.793506 -111.991648 5 16023ft 363kts
04-Jan-18 19:48 33.893192 -111.973112 5 18087ft 372kts
04-Jan-18 19:49 33.996379 -111.953573 5 19905ft 383kts
04-Jan-18 19:50 34.100073 -111.936934 354 21476ft 388kts
04-Jan-18 19:51 34.206319 -111.948293 350 22960ft 396kts
04-Jan-18 19:52 34.314277 -111.960209 350 24321ft 405kts
04-Jan-18 19:53 34.426607 -111.972643 350 25579ft 414kts
04-Jan-18 19:54 34.540031 -111.985172 350 26712ft 423kts
04-Jan-18 19:55 34.657980 -111.998232 350 27783ft 431kts
04-Jan-18 19:56 34.777985 -112.011566 350 28774ft 439kts
04-Jan-18 19:57 34.898735 -112.032039 335 29649ft 437kts
04-Jan-18 19:58 34.988870 -112.122720 297 30467ft 426kts
04-Jan-18 19:59 35.020849 -112.258813 281 31621ft 419kts
04-Jan-18 20:00 35.046088 -112.395391 290 32887ft 411kts
04-Jan-18 20:01 35.124506 -112.486365 336 33636ft 432kts
04-Jan-18 20:02 35.244255 -112.474060 14 34360ft 461kts
04-Jan-18 20:03 35.363817 -112.419626 14 34408ft 459kts
04-Jan-18 20:04 35.482447 -112.365609 14 34408ft 459kts
04-Jan-18 20:05 35.601462 -112.311200 14 34408ft 459kts
04-Jan-18 20:06 35.720371 -112.256663 14 34408ft 458kts
04-Jan-18 20:07 35.839227 -112.201816 15 34408ft 458kts
04-Jan-18 20:08 35.958706 -112.151545 3 34412ft 449kts
04-Jan-18 20:09 36.079800 -112.156639 348 34401ft 442kts
04-Jan-18 20:10 36.191637 -112.166756 348 34409ft 448kts
04-Jan-18 20:11 36.312418 -112.177426 349 34448ft 442kts
04-Jan-18 20:12 36.433637 -112.188177 349 34436ft 446kts
04-Jan-18 20:13 36.557031 -112.198515 354 34501ft 446kts
04-Jan-18 20:14 36.674108 -112.157416 3 34631ft 448kts
04-Jan-18 20:15 36.793650 -112.148346 352 34085ft 401kts
04-Jan-18 20:16 36.896954 -112.141728 350 34722ft 402kts
04-Jan-18 20:17 37.005296 -112.151320 348 35196ft 390kts
04-Jan-18 20:18 37.099690 -112.185069 305 34421ft 340kts
04-Jan-18 20:19 37.189506 -112.225678 351 34429ft 408kts
04-Jan-18 20:20 37.303229 -112.243697 344 34433ft 423kts
04-Jan-18 20:21 37.421752 -112.262603 345 34427ft 438kts
04-Jan-18 20:22 37.543093 -112.281326 345 34425ft 441kts
04-Jan-18 20:23 37.664048 -112.299997 345 34426ft 440kts
04-Jan-18 20:24 37.786593 -112.306282 0 34426ft 458kts
04-Jan-18 20:25 37.912222 -112.287284 359 34429ft 455kts
04-Jan-18 20:26 38.036312 -112.268269 359 34466ft 445kts
04-Jan-18 20:27 38.153695 -112.250142 359 34432ft 438kts
04-Jan-18 20:28 38.272528 -112.231701 359 34303ft 434kts
04-Jan-18 20:29 38.391775 -112.213134 359 34300ft 433kts
04-Jan-18 20:30 38.510940 -112.194514 359 34305ft 434kts
04-Jan-18 20:31 38.630234 -112.175805 359 34340ft 436kts
04-Jan-18 20:32 38.750043 -112.156948 359 34235ft 437kts
04-Jan-18 20:33 38.870297 -112.140182 359 33331ft 437kts
04-Jan-18 20:34 38.990521 -112.123550 359 32122ft 431kts
04-Jan-18 20:35 39.101264 -112.108177 0 30318ft 419kts
04-Jan-18 20:36 39.175578 -112.097825 0 29111ft 410kts
04-Jan-18 20:37 39.285599 -112.082444 1 27090ft 403kts
04-Jan-18 20:38 39.394974 -112.066965 1 25094ft 394kts
04-Jan-18 20:39 39.502390 -112.051724 1 23188ft 389kts
04-Jan-18 20:40 39.604109 -112.037243 2 21286ft 380kts
04-Jan-18 20:41 39.707238 -112.022520 2 19357ft 370kts
04-Jan-18 20:42 39.807469 -112.008159 2 17544ft 358kts
04-Jan-18 20:43 39.904401 -111.994248 3 15767ft 347kts
04-Jan-18 20:44 39.998930 -111.980965 3 13846ft 342kts
04-Jan-18 20:45 40.091229 -111.968268 5 12199ft 328kts
04-Jan-18 20:46 40.174004 -111.956844 6 11036ft 305kts
04-Jan-18 20:47 40.248312 -111.946596 6 11019ft 262kts
04-Jan-18 20:48 40.320930 -111.935893 4 11025ft 275kts
04-Jan-18 20:49 40.398724 -111.929728 354 11035ft 270kts
04-Jan-18 20:50 40.466878 -111.936783 355 10629ft 248kts
04-Jan-18 20:51 40.531357 -111.944986 353 9197ft 217kts
04-Jan-18 20:52 40.587135 -111.951345 353 7921ft 181kts
04-Jan-18 20:53 40.632254 -111.956597 353 6994ft 156kts
04-Jan-18 20:54 40.673938 -111.961429 353 6215ft 153kts
04-Jan-18 20:55 40.716123 -111.966472 354 5399ft 152kts
04-Jan-18 20:56 40.750198 -111.970322 353 4751ft 150kts
04-Jan-18 20:57 40.785221 -111.974345 352 4236ft 97kts
04-Jan-18 20:58 40.795600 -111.977138 275 4236ft 0kts
04-Jan-18 20:59 40.792943 -111.977421 172 4236ft 20kts
04-Jan-18 21:00 40.789146 -111.977070 170 4236ft 10kts
04-Jan-18 21:01 40.784328 -111.977361 246 4236ft 17kts
04-Jan-18 21:02 40.784890 -111.979005 0 4236ft 0kts
04-Jan-18 21:03 40.784890 -111.979005 0 4236ft 0kts

Navigation Log

Ident Type
Flight plan parsing failed, navigation log unavailable